createdAt,value
2023-05-19T00:01:00.433Z,8.10
2023-05-19T00:03:27.175Z,10.60
2023-05-19T00:05:54.113Z,13.50
2023-05-19T00:08:22.656Z,12.55
2023-05-19T00:10:49.132Z,13.30
2023-05-19T00:13:15.980Z,8.98
2023-05-19T00:15:42.543Z,9.27
2023-05-19T00:18:09.062Z,12.88
2023-05-19T00:20:35.950Z,11.63
2023-05-19T00:23:02.319Z,9.88
2023-05-19T00:25:31.208Z,10.90
2023-05-19T00:27:59.202Z,9.45
2023-05-19T00:30:25.877Z,8.20
2023-05-19T00:32:52.305Z,11.40
2023-05-19T00:35:18.787Z,13.10
2023-05-19T00:37:45.645Z,14.02
2023-05-19T00:40:12.153Z,14.23
2023-05-19T00:42:38.647Z,15.85
2023-05-19T00:45:05.409Z,15.77
2023-05-19T00:47:31.886Z,11.93
2023-05-19T00:49:58.428Z,9.75
2023-05-19T00:52:27.777Z,10.50
2023-05-19T00:54:57.577Z,10.13
2023-05-19T00:57:24.098Z,12.38
2023-05-19T00:59:50.593Z,14.50
2023-05-19T01:02:18.066Z,15.27
2023-05-19T01:04:44.865Z,15.43
2023-05-19T01:07:12.496Z,9.30
2023-05-19T01:09:40.883Z,13.77
2023-05-19T01:12:07.722Z,9.30
2023-05-19T01:14:36.614Z,18.02
2023-05-19T01:17:10.017Z,12.73
2023-05-19T01:19:39.526Z,14.63
2023-05-19T01:22:06.853Z,10.43
2023-05-19T01:24:33.506Z,12.13
2023-05-19T01:27:08.800Z,15.43
2023-05-19T01:29:44.215Z,12.02
2023-05-19T01:32:11.916Z,11.40
2023-05-19T01:34:39.876Z,14.13
2023-05-19T01:37:07.102Z,12.30
2023-05-19T01:39:33.509Z,15.60
2023-05-19T01:42:01.552Z,9.88
2023-05-19T01:44:28.738Z,12.77
2023-05-19T01:46:58.659Z,16.95
2023-05-19T01:49:25.120Z,13.73
2023-05-19T01:51:52.681Z,11.30
2023-05-19T01:54:19.144Z,14.05
2023-05-19T01:56:51.846Z,13.13
2023-05-19T01:59:38.395Z,10.85
2023-05-19T02:02:09.360Z,13.93
2023-05-19T02:04:45.011Z,12.10
2023-05-19T02:07:14.670Z,11.55
2023-05-19T02:09:47.073Z,10.57
2023-05-19T02:12:25.881Z,15.77
2023-05-19T02:15:12.349Z,11.85
2023-05-19T02:17:41.713Z,17.67
2023-05-19T02:20:11.780Z,11.65
2023-05-19T02:22:38.310Z,15.60
2023-05-19T02:25:05.004Z,13.90
2023-05-19T02:27:33.883Z,16.25
2023-05-19T02:30:00.397Z,15.25
2023-05-19T02:32:26.830Z,19.13
2023-05-19T02:34:53.332Z,12.30
2023-05-19T02:37:23.716Z,13.93
2023-05-19T02:39:52.597Z,13.68
2023-05-19T02:42:19.048Z,12.70
2023-05-19T02:44:45.466Z,13.82
2023-05-19T02:47:14.238Z,18.38
2023-05-19T02:49:41.024Z,17.05
2023-05-19T02:52:07.481Z,14.88
2023-05-19T02:54:34.445Z,11.63
2023-05-19T02:57:01.158Z,15.18
2023-05-19T02:59:27.554Z,16.90
2023-05-19T03:01:59.301Z,14.45
2023-05-19T03:04:25.808Z,11.35
2023-05-19T03:06:52.370Z,13.60
2023-05-19T03:09:18.831Z,15.35
2023-05-19T03:11:45.341Z,13.68
2023-05-19T03:14:14.149Z,15.68
2023-05-19T03:16:43.705Z,14.68
2023-05-19T03:19:10.619Z,12.13
2023-05-19T03:21:37.511Z,15.68
2023-05-19T03:24:04.023Z,11.20
2023-05-19T03:26:30.525Z,12.55
2023-05-19T03:28:56.936Z,12.52
2023-05-19T03:31:23.408Z,10.88
2023-05-19T03:33:49.800Z,14.18
2023-05-19T03:36:16.246Z,9.77
2023-05-19T03:38:42.641Z,18.40
2023-05-19T03:41:09.086Z,12.35
2023-05-19T03:43:35.478Z,12.27
2023-05-19T03:46:02.266Z,14.27
2023-05-19T03:48:31.206Z,12.23
2023-05-19T03:50:58.042Z,18.05
2023-05-19T03:53:24.429Z,11.30
2023-05-19T03:55:50.876Z,10.20
2023-05-19T03:58:17.326Z,13.60
2023-05-19T04:00:43.740Z,17.55
2023-05-19T04:03:10.292Z,14.68
2023-05-19T04:05:36.856Z,14.82
2023-05-19T04:08:03.325Z,12.20
2023-05-19T04:10:29.844Z,17.95
2023-05-19T04:12:56.858Z,10.15
2023-05-19T04:15:26.025Z,15.57
2023-05-19T04:17:55.724Z,12.23
2023-05-19T04:20:22.166Z,12.40
2023-05-19T04:22:48.590Z,14.55
2023-05-19T04:25:15.078Z,11.82
2023-05-19T04:27:41.524Z,14.82
2023-05-19T04:30:08.371Z,16.10
2023-05-19T04:32:37.368Z,12.07
2023-05-19T04:35:04.136Z,11.52
2023-05-19T04:37:30.642Z,18.48
2023-05-19T04:39:57.171Z,13.40
2023-05-19T04:42:26.143Z,11.88
2023-05-19T04:44:52.644Z,12.35
2023-05-19T04:47:21.542Z,14.88
2023-05-19T04:49:48.158Z,11.05
2023-05-19T04:52:14.646Z,16.17
2023-05-19T04:54:41.837Z,13.05
2023-05-19T04:57:08.500Z,11.98
2023-05-19T04:59:35.013Z,14.27
2023-05-19T05:02:01.524Z,14.23
2023-05-19T05:04:30.591Z,12.07
2023-05-19T05:06:57.001Z,14.18
2023-05-19T05:09:23.411Z,13.90
2023-05-19T05:11:50.109Z,14.35
2023-05-19T05:14:16.889Z,13.48
2023-05-19T05:16:43.717Z,16.17
2023-05-19T05:19:10.463Z,11.88
2023-05-19T05:21:37.141Z,16.10
2023-05-19T05:24:03.706Z,14.30
2023-05-19T05:26:31.654Z,10.75
2023-05-19T05:28:58.059Z,19.73
2023-05-19T05:31:24.488Z,15.38
2023-05-19T05:33:50.928Z,11.52
2023-05-19T05:36:17.408Z,16.17
2023-05-19T05:38:43.782Z,12.75
2023-05-19T05:41:10.248Z,14.93
2023-05-19T05:43:36.673Z,12.18
2023-05-19T05:46:03.115Z,13.75
2023-05-19T05:48:29.645Z,12.55
2023-05-19T05:50:56.756Z,10.85
2023-05-19T05:53:24.818Z,14.00
2023-05-19T05:55:51.649Z,13.75
2023-05-19T05:58:18.089Z,10.07
2023-05-19T06:00:45.256Z,13.65
2023-05-19T06:03:11.872Z,14.55
2023-05-19T06:05:38.692Z,12.82
2023-05-19T06:08:05.473Z,12.05
2023-05-19T06:10:32.558Z,12.05
2023-05-19T06:13:01.294Z,12.00
2023-05-19T06:15:27.773Z,13.65
2023-05-19T06:17:54.727Z,13.55
2023-05-19T06:20:21.369Z,16.58
2023-05-19T06:22:47.802Z,14.05
2023-05-19T06:25:14.279Z,12.65
2023-05-19T06:27:40.788Z,11.00
2023-05-19T06:30:08.655Z,9.82
2023-05-19T06:32:35.351Z,11.93
2023-05-19T06:35:04.460Z,16.55
2023-05-19T06:37:31.193Z,16.05
2023-05-19T06:39:57.658Z,10.38
2023-05-19T06:42:25.197Z,10.27
2023-05-19T06:44:52.366Z,13.07
2023-05-19T06:47:18.937Z,12.07
2023-05-19T06:49:45.597Z,8.77
2023-05-19T06:52:12.237Z,9.68
2023-05-19T06:54:38.764Z,10.98
2023-05-19T06:57:05.298Z,9.63
2023-05-19T06:59:33.888Z,10.88
2023-05-19T07:02:02.893Z,8.63
2023-05-19T07:04:29.349Z,10.32
2023-05-19T07:06:55.788Z,10.63
2023-05-19T07:09:22.192Z,10.93
2023-05-19T07:11:48.869Z,9.40
2023-05-19T07:14:15.340Z,9.38
2023-05-19T07:16:44.286Z,11.35
2023-05-19T07:19:10.860Z,9.52
2023-05-19T07:21:37.363Z,15.57
2023-05-19T07:24:03.834Z,12.40
2023-05-19T07:26:30.348Z,8.13
2023-05-19T07:28:57.815Z,10.23
2023-05-19T07:31:24.347Z,12.77
2023-05-19T07:33:52.284Z,10.55
2023-05-19T07:36:20.901Z,12.32
2023-05-19T07:38:47.414Z,9.77
2023-05-19T07:41:13.916Z,10.77
2023-05-19T07:43:40.382Z,10.52
2023-05-19T07:46:06.892Z,8.70
2023-05-19T07:48:33.426Z,9.32
2023-05-19T07:50:59.861Z,10.30
2023-05-19T07:53:28.854Z,10.02
2023-05-19T07:55:58.306Z,10.77
2023-05-19T07:58:25.086Z,8.63
2023-05-19T08:00:51.486Z,7.82
2023-05-19T08:03:18.381Z,8.93
2023-05-19T08:05:45.525Z,9.32
2023-05-19T08:08:11.957Z,10.27
2023-05-19T08:10:38.425Z,10.25
2023-05-19T08:13:05.320Z,11.93
2023-05-19T08:15:31.843Z,14.82
2023-05-19T08:17:58.401Z,12.85
2023-05-19T08:20:24.831Z,12.13
2023-05-19T08:22:51.540Z,18.42
2023-05-19T08:25:19.730Z,15.52
2023-05-19T08:27:46.410Z,11.82
2023-05-19T08:30:13.024Z,12.18
2023-05-19T08:32:39.505Z,9.70
2023-05-19T08:35:06.209Z,9.15
2023-05-19T08:37:34.081Z,11.27
2023-05-19T08:40:00.767Z,12.15
2023-05-19T08:42:27.185Z,9.88
2023-05-19T08:44:53.619Z,14.07
2023-05-19T08:47:20.131Z,9.80
2023-05-19T08:49:49.716Z,9.57
2023-05-19T08:52:27.968Z,8.75
2023-05-19T08:55:00.959Z,10.48
2023-05-19T08:57:27.959Z,10.50
2023-05-19T08:59:55.035Z,9.77
2023-05-19T09:02:22.179Z,20.33
2023-05-19T09:04:48.849Z,14.00
2023-05-19T09:07:15.595Z,13.77
2023-05-19T09:09:43.901Z,11.68
2023-05-19T09:12:11.431Z,12.93
2023-05-19T09:14:38.467Z,10.20
2023-05-19T09:17:05.232Z,9.60
2023-05-19T09:19:32.176Z,14.80
2023-05-19T09:22:00.974Z,12.00
2023-05-19T09:24:28.316Z,8.95
2023-05-19T09:27:00.675Z,14.10
2023-05-19T09:29:27.135Z,11.48
2023-05-19T09:31:54.784Z,13.15
2023-05-19T09:34:22.380Z,11.55
2023-05-19T09:36:49.990Z,13.52
2023-05-19T09:39:17.117Z,10.65
2023-05-19T09:41:43.689Z,12.55
2023-05-19T09:44:29.532Z,11.75
2023-05-19T09:46:56.278Z,10.73
2023-05-19T09:49:23.880Z,14.70
2023-05-19T09:51:51.183Z,12.50
2023-05-19T09:54:17.732Z,10.43
2023-05-19T09:56:44.294Z,12.90
2023-05-19T09:59:11.617Z,9.80
2023-05-19T10:01:41.103Z,9.68
2023-05-19T10:04:07.899Z,11.95
2023-05-19T10:06:34.648Z,9.88
2023-05-19T10:09:01.384Z,10.32
2023-05-19T10:11:29.047Z,11.13
2023-05-19T10:13:55.579Z,11.45
2023-05-19T10:16:22.285Z,10.85
2023-05-19T10:18:49.911Z,9.90
2023-05-19T10:21:16.657Z,11.13
2023-05-19T10:23:45.795Z,10.00
2023-05-19T10:26:12.703Z,11.02
2023-05-19T10:28:41.018Z,9.23
2023-05-19T10:31:09.742Z,11.68
2023-05-19T10:33:50.696Z,9.63
2023-05-19T10:36:29.407Z,8.75
2023-05-19T10:39:06.961Z,9.82
2023-05-19T10:41:46.856Z,10.85
2023-05-19T10:44:23.298Z,8.75
2023-05-19T10:46:50.546Z,10.18
2023-05-19T10:49:22.739Z,8.05
2023-05-19T10:51:52.029Z,11.07
2023-05-19T10:54:39.144Z,8.50
2023-05-19T10:57:07.000Z,8.13
2023-05-19T10:59:35.043Z,9.00
2023-05-19T11:02:04.971Z,8.77
2023-05-19T11:04:51.133Z,10.25
2023-05-19T11:07:20.074Z,9.90
2023-05-19T11:09:52.873Z,7.40
2023-05-19T11:12:24.790Z,9.37
2023-05-19T11:14:54.784Z,7.57
2023-05-19T11:17:22.226Z,8.23
2023-05-19T11:19:55.523Z,8.90
2023-05-19T11:22:26.163Z,7.10
2023-05-19T11:24:54.720Z,9.02
2023-05-19T11:27:24.330Z,9.98
2023-05-19T11:29:53.704Z,8.32
2023-05-19T11:32:20.916Z,8.57
2023-05-19T11:34:48.242Z,8.13
2023-05-19T11:37:14.761Z,6.32
2023-05-19T11:39:41.305Z,6.68
2023-05-19T11:42:11.165Z,8.48
2023-05-19T11:44:38.530Z,8.95
2023-05-19T11:47:05.429Z,7.40
2023-05-19T11:49:31.945Z,6.90
2023-05-19T11:51:59.923Z,8.15
2023-05-19T11:54:31.505Z,6.32
2023-05-19T11:57:00.355Z,7.47
2023-05-19T11:59:35.618Z,9.52
2023-05-19T12:02:03.958Z,8.63
2023-05-19T12:04:31.449Z,8.73
2023-05-19T12:06:57.902Z,9.38
2023-05-19T12:09:24.742Z,7.18
2023-05-19T12:11:51.520Z,7.38
2023-05-19T12:14:19.253Z,5.95
2023-05-19T12:16:45.828Z,8.50
2023-05-19T12:19:12.512Z,12.38
2023-05-19T12:21:39.195Z,8.05
2023-05-19T12:24:08.550Z,8.27
2023-05-19T12:26:35.908Z,10.00
2023-05-19T12:29:02.408Z,6.53
2023-05-19T12:31:31.337Z,7.35
2023-05-19T12:34:01.612Z,8.80
2023-05-19T12:36:31.804Z,9.93
2023-05-19T12:38:58.371Z,6.80
2023-05-19T12:41:27.485Z,7.57
2023-05-19T12:43:59.396Z,9.60
2023-05-19T12:46:28.979Z,8.10
2023-05-19T12:48:59.556Z,6.97
2023-05-19T12:51:26.044Z,7.10
2023-05-19T12:53:52.545Z,5.50
2023-05-19T12:56:19.035Z,8.35
2023-05-19T12:58:53.245Z,7.80
2023-05-19T13:01:19.854Z,7.85
2023-05-19T13:03:49.061Z,8.57
2023-05-19T13:06:15.693Z,5.25
2023-05-19T13:08:42.200Z,6.45
2023-05-19T13:11:08.678Z,8.23
2023-05-19T13:13:35.214Z,10.05
2023-05-19T13:16:01.708Z,8.43
2023-05-19T13:18:28.166Z,7.07
2023-05-19T13:20:57.109Z,5.47
2023-05-19T13:23:23.605Z,8.48
2023-05-19T13:25:50.779Z,6.72
2023-05-19T13:28:17.234Z,6.15
2023-05-19T13:30:44.360Z,7.03
2023-05-19T13:33:11.992Z,9.02
2023-05-19T13:35:39.019Z,7.15
2023-05-19T13:38:12.214Z,8.35
2023-05-19T13:40:39.635Z,5.75
2023-05-19T13:43:07.301Z,5.15
2023-05-19T13:45:33.718Z,6.70
2023-05-19T13:48:00.267Z,6.80
2023-05-19T13:50:26.835Z,7.95
2023-05-19T13:52:53.867Z,6.40
2023-05-19T13:55:23.318Z,6.00
2023-05-19T13:57:50.847Z,7.03
2023-05-19T14:00:18.315Z,5.28
2023-05-19T14:02:45.069Z,8.25
2023-05-19T14:05:11.717Z,6.63
2023-05-19T14:07:40.475Z,5.43
2023-05-19T14:10:07.351Z,4.45
2023-05-19T14:12:44.982Z,8.27
2023-05-19T14:15:21.325Z,7.78
2023-05-19T14:17:49.032Z,8.07
2023-05-19T14:20:15.592Z,5.57
2023-05-19T14:22:42.005Z,8.20
2023-05-19T14:25:08.660Z,6.07
2023-05-19T14:27:35.245Z,5.80
2023-05-19T14:30:01.744Z,6.45
2023-05-19T14:32:30.231Z,7.95
2023-05-19T14:34:57.067Z,5.75
2023-05-19T14:37:24.141Z,6.30
2023-05-19T14:39:50.613Z,5.13
2023-05-19T14:42:19.946Z,9.77
2023-05-19T14:44:46.364Z,5.85
2023-05-19T14:47:12.978Z,6.78
2023-05-19T14:49:39.457Z,6.93
2023-05-19T14:52:06.090Z,5.57
2023-05-19T14:54:32.530Z,6.28
2023-05-19T14:56:58.957Z,13.23
2023-05-19T14:59:25.527Z,5.40
2023-05-19T15:01:54.387Z,6.10
2023-05-19T15:04:24.254Z,9.57
2023-05-19T15:07:05.806Z,4.45
2023-05-19T15:09:36.489Z,6.63
2023-05-19T15:12:02.976Z,6.30
2023-05-19T15:14:31.780Z,8.00
2023-05-19T15:16:58.504Z,7.53
2023-05-19T15:19:25.145Z,7.63
2023-05-19T15:21:51.800Z,3.60
2023-05-19T15:24:19.115Z,4.43
2023-05-19T15:26:45.750Z,7.35
2023-05-19T15:29:12.205Z,5.45
2023-05-19T15:31:38.782Z,5.18
2023-05-19T15:34:05.371Z,4.60
2023-05-19T15:36:31.937Z,4.00
2023-05-19T15:38:58.400Z,5.18
2023-05-19T15:41:24.893Z,3.33
2023-05-19T15:43:51.385Z,3.92
2023-05-19T15:46:19.675Z,5.53
2023-05-19T15:48:46.288Z,4.57
2023-05-19T15:51:12.741Z,3.72
2023-05-19T15:53:39.165Z,6.22
2023-05-19T15:56:05.725Z,4.05
2023-05-19T15:58:34.266Z,5.85
2023-05-19T16:01:00.822Z,3.63
2023-05-19T16:03:27.429Z,4.75
2023-05-19T16:05:54.306Z,5.55
2023-05-19T16:08:21.172Z,3.58
2023-05-19T16:10:47.633Z,6.15
2023-05-19T16:13:14.199Z,4.40
2023-05-19T16:15:43.204Z,4.80
2023-05-19T16:18:09.766Z,5.60
2023-05-19T16:20:36.363Z,6.10
2023-05-19T16:23:03.273Z,5.20
2023-05-19T16:25:30.155Z,3.85
2023-05-19T16:27:58.969Z,4.78
2023-05-19T16:30:26.457Z,4.18
2023-05-19T16:32:55.976Z,3.83
2023-05-19T16:35:23.421Z,7.40
2023-05-19T16:37:49.909Z,4.68
2023-05-19T16:40:16.373Z,5.28
2023-05-19T16:42:42.838Z,3.97
2023-05-19T16:45:09.536Z,4.78
2023-05-19T16:47:38.496Z,4.53
2023-05-19T16:50:05.439Z,5.50
2023-05-19T16:52:31.919Z,7.22
2023-05-19T16:55:00.870Z,6.88
2023-05-19T16:57:27.323Z,4.88
2023-05-19T16:59:53.694Z,7.82
2023-05-19T17:02:20.161Z,6.55
2023-05-19T17:04:46.709Z,7.75
2023-05-19T17:07:17.041Z,4.57
2023-05-19T17:09:43.971Z,5.40
2023-05-19T17:12:10.864Z,7.50
2023-05-19T17:14:37.330Z,4.95
2023-05-19T17:17:03.875Z,5.35
2023-05-19T17:19:30.550Z,5.20
2023-05-19T17:21:57.024Z,5.75
2023-05-19T17:24:26.090Z,4.25
2023-05-19T17:26:52.536Z,4.68
2023-05-19T17:29:21.458Z,3.97
2023-05-19T17:31:47.911Z,5.93
2023-05-19T17:34:16.629Z,5.25
2023-05-19T17:36:43.024Z,4.90
2023-05-19T17:39:09.409Z,5.10
2023-05-19T17:41:35.871Z,4.53
2023-05-19T17:44:03.710Z,4.45
2023-05-19T17:46:34.582Z,5.63
2023-05-19T17:49:03.477Z,5.55
2023-05-19T17:51:30.205Z,4.68
2023-05-19T17:53:56.844Z,5.75
2023-05-19T17:56:24.250Z,5.57
2023-05-19T17:58:51.089Z,6.72
2023-05-19T18:01:18.132Z,5.93
2023-05-19T18:03:49.583Z,4.22
2023-05-19T18:06:16.985Z,5.10
2023-05-19T18:08:46.973Z,5.43
2023-05-19T18:11:16.022Z,5.20
2023-05-19T18:13:42.987Z,4.20
2023-05-19T18:16:09.870Z,4.18
2023-05-19T18:18:37.451Z,4.03
2023-05-19T18:21:04.155Z,3.75
2023-05-19T18:23:33.241Z,7.28
2023-05-19T18:25:59.639Z,4.30
2023-05-19T18:28:26.081Z,4.05
2023-05-19T18:31:06.270Z,3.75
2023-05-19T18:33:33.060Z,4.25
2023-05-19T18:35:59.608Z,4.63
2023-05-19T18:38:30.970Z,4.88
2023-05-19T18:40:57.618Z,4.57
2023-05-19T18:43:24.121Z,4.43
2023-05-19T18:45:50.773Z,5.65
2023-05-19T18:48:17.357Z,4.22
2023-05-19T18:50:44.646Z,4.47
2023-05-19T18:53:13.602Z,5.03
2023-05-19T18:55:40.065Z,4.20
2023-05-19T18:58:06.513Z,3.00
2023-05-19T19:00:35.132Z,4.32
2023-05-19T19:03:02.342Z,5.50
2023-05-19T19:05:28.824Z,3.70
2023-05-19T19:07:55.291Z,6.68
2023-05-19T19:10:21.851Z,5.05
2023-05-19T19:12:50.782Z,5.57
2023-05-19T19:15:17.240Z,6.68
2023-05-19T19:17:44.007Z,3.20
2023-05-19T19:20:10.770Z,4.47
2023-05-19T19:22:37.290Z,5.65
2023-05-19T19:25:06.261Z,5.18
2023-05-19T19:27:35.469Z,4.03
2023-05-19T19:30:01.976Z,5.15
2023-05-19T19:32:28.471Z,3.10
2023-05-19T19:34:54.946Z,6.47
2023-05-19T19:37:21.346Z,4.18
2023-05-19T19:39:47.841Z,3.55
2023-05-19T19:42:16.666Z,5.70
2023-05-19T19:44:43.087Z,9.45
2023-05-19T19:47:09.634Z,3.65
2023-05-19T19:49:36.104Z,4.03
2023-05-19T19:52:02.528Z,4.40
2023-05-19T19:54:29.012Z,4.55
2023-05-19T19:56:55.580Z,5.13
2023-05-19T19:59:24.627Z,5.68
2023-05-19T20:01:54.041Z,3.85
2023-05-19T20:04:23.014Z,6.00
2023-05-19T20:06:49.790Z,4.88
2023-05-19T20:09:16.579Z,4.63
2023-05-19T20:11:45.275Z,4.95
2023-05-19T20:14:14.045Z,3.97
2023-05-19T20:16:41.095Z,3.85
2023-05-19T20:19:09.142Z,5.10
2023-05-19T20:21:35.931Z,4.40
2023-05-19T20:24:02.381Z,5.32
2023-05-19T20:26:29.345Z,6.35
2023-05-19T20:28:59.051Z,7.97
2023-05-19T20:31:25.885Z,4.43
2023-05-19T20:33:52.594Z,4.68
2023-05-19T20:36:19.161Z,4.93
2023-05-19T20:38:48.031Z,4.00
2023-05-19T20:41:14.712Z,4.00
2023-05-19T20:43:43.552Z,4.93
2023-05-19T20:46:10.188Z,4.25
2023-05-19T20:48:36.738Z,4.80
2023-05-19T20:51:03.257Z,7.00
2023-05-19T20:53:29.669Z,4.25
2023-05-19T20:55:56.529Z,5.68
2023-05-19T20:58:29.973Z,4.78
2023-05-19T21:00:58.130Z,4.57
2023-05-19T21:03:25.068Z,7.15
2023-05-19T21:05:51.533Z,5.57
2023-05-19T21:08:18.002Z,4.50
2023-05-19T21:10:44.570Z,6.47
2023-05-19T21:13:11.043Z,4.57
2023-05-19T21:15:37.466Z,6.38
2023-05-19T21:18:04.017Z,5.65
2023-05-19T21:20:30.538Z,5.85
2023-05-19T21:22:56.949Z,5.38
2023-05-19T21:25:23.438Z,4.47
2023-05-19T21:27:51.310Z,8.95
2023-05-19T21:30:17.785Z,5.60
2023-05-19T21:32:46.634Z,4.88
2023-05-19T21:35:13.152Z,4.50
2023-05-19T21:37:42.078Z,4.50
2023-05-19T21:40:11.178Z,5.28
2023-05-19T21:42:37.662Z,5.55
2023-05-19T21:45:04.261Z,6.38
2023-05-19T21:47:30.710Z,7.90
2023-05-19T21:49:57.105Z,5.25
2023-05-19T21:52:26.051Z,5.78
2023-05-19T21:54:52.506Z,7.80
2023-05-19T21:57:18.972Z,5.82
2023-05-19T21:59:45.466Z,3.97
2023-05-19T22:02:14.458Z,5.32
2023-05-19T22:04:43.840Z,4.80
2023-05-19T22:07:10.432Z,11.25
2023-05-19T22:09:37.948Z,7.00
2023-05-19T22:12:04.577Z,6.00
2023-05-19T22:14:31.167Z,7.10
2023-05-19T22:16:59.977Z,5.50
2023-05-19T22:19:26.643Z,6.07
2023-05-19T22:22:09.864Z,7.03
2023-05-19T22:24:42.509Z,5.55
2023-05-19T22:27:08.963Z,5.72
2023-05-19T22:29:39.027Z,5.80
2023-05-19T22:32:06.844Z,5.32
2023-05-19T22:34:33.330Z,5.70
2023-05-19T22:36:59.789Z,6.15
2023-05-19T22:39:26.264Z,5.78
2023-05-19T22:41:52.681Z,8.40
2023-05-19T22:44:19.582Z,6.53
2023-05-19T22:46:46.119Z,6.13
2023-05-19T22:49:14.758Z,7.13
2023-05-19T22:51:41.327Z,6.30
2023-05-19T22:54:07.863Z,9.25
2023-05-19T22:56:34.381Z,5.57
2023-05-19T22:59:00.850Z,8.07
2023-05-19T23:01:27.392Z,6.80
2023-05-19T23:03:54.001Z,5.97
2023-05-19T23:06:21.508Z,6.03
2023-05-19T23:08:57.526Z,8.18
2023-05-19T23:11:23.921Z,6.60
2023-05-19T23:13:50.486Z,5.95
2023-05-19T23:16:16.922Z,6.35
2023-05-19T23:18:43.440Z,9.32
2023-05-19T23:21:09.900Z,8.00
2023-05-19T23:23:36.912Z,7.97
2023-05-19T23:26:03.747Z,6.70
2023-05-19T23:28:30.142Z,6.65
2023-05-19T23:30:56.664Z,7.05
2023-05-19T23:33:23.108Z,9.43
2023-05-19T23:35:49.675Z,7.18
2023-05-19T23:38:16.137Z,6.38
2023-05-19T23:40:43.288Z,7.18
2023-05-19T23:43:09.660Z,6.90
2023-05-19T23:45:36.077Z,6.85
2023-05-19T23:48:02.512Z,6.85
2023-05-19T23:50:29.016Z,7.32
2023-05-19T23:52:55.485Z,6.35
2023-05-19T23:55:22.706Z,8.05
2023-05-19T23:57:49.167Z,7.05
